Aérodrome :







RETROUVEZ-NOUS SUR...

 
LOGIN :

S'inscrire | Disclaimer

   EN    FR    IT 

 









Légende :    VFR   VFR Marginal   IFR   IFR Intensif   IFR Très Intensif
Visi : 
Plafond : 
>= 8 km
>= 3000ft
5 à 8 km
1000 à 3000 ft
1500m à 5 km
500 à 1000 ft
800 à 1500m
200 à 500 ft
< 800m
< 200 ft
Symboles :   Orages  Brouillard  Fortes neiges  Fortes précipitations  Vent > 20 kt






- Altitude de l'aérodrome : 1442 ft
- Code IATA : ZUM


CZUM - Churchill Falls

DERNIER METAR :
  • 260800Z AUTO VRB02KT 9SM OVC070 M14/M18 A2991 RMK SLP169

METARs EXPIRÉS :
  • 260700Z AUTO 00000KT 9SM OVC085 M14/M17 A2993 RMK SLP176
  • 260600Z AUTO 00000KT 9SM OVC100 M14/M18 A2994 RMK SLP180

TAF TAF CZUM
Valide du 26 à 08h jusqu'au 26 à 20h UTC


260738Z 2608/2620 VRB03KT P6SM OVC090
FM260900 VRB03KT P6SM SCT012 BKN050
TEMPO 2609/2611 BKN012 BKN050
FM261100 VRB03KT 6SM -SN OVC025
TEMPO 2611/2614 5SM -SN OVC012
FM261400 06005KT 2SM -SN OVC010
PROB40 2614/2620 1SM -SN VV008 RMK FCST BASED ON AUTO OBS. NXT FCST BY 261400Z



MET'MAP, la Météo Aéronautique d'un coup d'oeil ! - Copyright ORBIFLY Décembre 2007 - Disclaimer

ORBIFLY MET'MAP TEAM :

Programmation & Développement : Alexandra Zaïnal
Sur une idée originale de : Baudouin d'Aumeries
Assistance à la programmation : Marc-Olivier Méhu
Soutien technique & logistique : Manuel Goepfert

Contact : metmap@orbifly.com




SOURCES & CREDITS :

   NOAA